Lahaina, HI

12:53 PM HST on September 02, 2015 (GMT -1000)
puamana | | Change Station
CLOSE
Current Station
Personal Weather Station
Location: Lahaina, HI
Elevation: 36 ft
Nearby Weather Stations

Elev 36 ft 20.86 °N, 156.67 °W | Updated 24 seconds ago

Rain
Rain
82.2 °F
Feels Like 91 °F
N
0.0
Wind Variable Wind from SE
Gusts 0.0 mph

Today
High -- | Low -- °F
--% Chance of Precip.
Yesterday
High -- | Low -- °F
Precip. -- in
6:10 AM 6:41 PM
Waning Gibbous, 76% visible
Pressure 29.86 in
Visibility 15.0 miles
Clouds Few 2500 ft
Scattered Clouds 4500 ft
Heat Index 91 °F
Dew Point 78 °F
Humidity 86%
Rainfall 0.10 in
Snow Depth Not available.
UV 9 out of 12
Pollen Not available.
Air Quality Not available.
Flu Activity Not available.
METAR PHJH 022150Z 19015G22KT 15SM FEW025 SCT045 32/23 A2986
Pressure 29.86 in
Visibility 15.0 miles
Clouds Few 2500 ft
Scattered Clouds 4500 ft
Heat Index 91 °F
Dew Point 78 °F
Humidity 86%
Rainfall 0.10 in
Snow Depth Not available.
UV 9 out of 12
Pollen Not available.
Air Quality Not available.
Flu Activity Not available.
METAR PHJH 022150Z 19015G22KT 15SM FEW025 SCT045 32/23 A2986

10-Day Weather Forecast

×

Almanac

Astronomy

Sep. 02, 2015 Rise Set
Actual Time
Civil Twilight
Nautical Twilight
Astronomical Twilight
Moon
Length of Visible Light
Length of Day
Tomorrow will be .
, % of the Moon is Illuminated

Today's Extremes

State Highs State Lows

Community

WunderPhotos

Upload Photos

1,851,822 photos uploaded!

WunderBlogs® & News

Nearby

Air Quality

  Air Quality AQ Index Pollutant
Not available.

Snow Depth

Station Depth Elevation

Earthquake Activity

City Distance Mag. Time & Date
Minimum magnitude displayed is 2.5.

Coastal Water Temperatures

Place Temperature

Stations

Nearby Weather Stations

Station Location Temp. Windchill Dew Point Humidity Wind Precip. Elev Updated Type